Time;durP1;ratioP1;P1;durP2;ratioP2;P2;SDS_P1;SDS_P2;PMS_P1;PMS_P2;Temp;Humidity;BMP_temperature;BMP_pressure;BME280_temperature;BME280_humidity;BME280_pressure;Samples;Min_cycle;Max_cycle;Signal;HPM_P1;HPM_P2
2024/01/25 00:00:28;;;;;;;0.40;0.40;;;;;;;3.20;88.36;95168.13;5049220;28;20311;-73
2024/01/25 00:02:55;;;;;;;2.08;1.38;;;;;;;3.19;88.49;95185.25;5045147;28;20227;-73
2024/01/25 00:05:23;;;;;;;1.08;0.35;;;;;;;3.53;89.34;95170.25;5049306;28;20247;-73
2024/01/25 00:07:50;;;;;;;0.22;0.22;;;;;;;3.85;90.08;95158.41;5046747;28;20208;-73
2024/01/25 00:10:19;;;;;;;0.32;0.32;;;;;;;4.03;87.05;95157.81;5035677;28;20274;-73
2024/01/25 00:12:45;;;;;;;0.82;0.82;;;;;;;4.36;87.38;95142.16;5048698;28;20228;-73
2024/01/25 00:15:13;;;;;;;3.17;1.45;;;;;;;4.40;87.20;95140.50;5036621;28;20205;-73
2024/01/25 00:17:40;;;;;;;0.60;0.60;;;;;;;4.31;86.60;95129.56;5051107;28;20216;-73
2024/01/25 00:20:10;;;;;;;0.20;0.20;;;;;;;4.29;86.70;95102.22;5036713;28;20220;-73
2024/01/25 00:22:41;;;;;;;0.95;0.95;;;;;;;4.01;88.04;95087.59;5053458;28;20273;-74
2024/01/25 00:25:08;;;;;;;0.57;0.57;;;;;;;4.20;87.00;95069.81;5034535;28;20209;-74
2024/01/25 00:27:35;;;;;;;1.23;1.15;;;;;;;4.09;86.16;95036.09;5033976;28;20668;-73
2024/01/25 00:30:02;;;;;;;2.25;0.93;;;;;;;3.99;85.18;95036.13;5037505;28;20203;-76
2024/01/25 00:32:28;;;;;;;0.63;0.63;;;;;;;4.10;85.12;95032.31;5053495;28;20257;-73
2024/01/25 00:34:56;;;;;;;0.20;0.20;;;;;;;4.11;84.48;95052.69;5053391;28;20211;-73
2024/01/25 00:37:23;;;;;;;0.20;0.20;;;;;;;3.84;84.01;95038.88;5051370;28;20271;-75
2024/01/25 00:39:53;;;;;;;0.82;0.47;;;;;;;3.76;85.11;95066.25;5033882;28;20658;-75
2024/01/25 00:42:23;;;;;;;0.20;0.20;;;;;;;3.53;86.57;95065.81;5033655;28;20700;-75
2024/01/25 00:44:51;;;;;;;0.85;0.85;;;;;;;3.35;87.95;95055.69;5036496;28;20580;-75
2024/01/25 00:47:18;;;;;;;0.40;0.40;;;;;;;3.32;88.39;95053.53;5054094;28;20579;-76
2024/01/25 00:49:49;;;;;;;0.40;0.40;;;;;;;3.17;89.13;95056.25;5049875;28;20272;-76
2024/01/25 00:52:16;;;;;;;0.20;0.20;;;;;;;3.51;90.58;95051.88;5053658;28;20207;-76
2024/01/25 00:54:43;;;;;;;0.20;0.20;;;;;;;3.82;89.34;95025.00;5044298;28;20196;-76
2024/01/25 00:57:15;;;;;;;0.20;0.20;;;;;;;3.95;87.55;95045.03;5047842;28;20730;-77
2024/01/25 00:59:43;;;;;;;0.20;0.20;;;;;;;3.79;87.13;95057.69;5036420;28;20255;-77
2024/01/25 01:02:12;;;;;;;0.30;0.30;;;;;;;4.03;87.22;95055.97;5034097;28;20203;-76
2024/01/25 01:04:40;;;;;;;0.20;0.20;;;;;;;4.17;87.84;95051.59;5039896;28;20219;-77
2024/01/25 01:07:08;;;;;;;4.10;1.75;;;;;;;4.11;86.12;95058.06;5044041;28;20203;-77
2024/01/25 01:09:36;;;;;;;0.52;0.52;;;;;;;3.55;87.46;95063.63;5039770;28;20638;-76
2024/01/25 01:12:03;;;;;;;1.65;1.55;;;;;;;3.52;87.80;95079.47;5045103;28;20559;-77
2024/01/25 01:14:31;;;;;;;1.27;0.52;;;;;;;3.58;88.67;95068.47;5044359;28;20573;-76
2024/01/25 01:16:57;;;;;;;0.38;0.38;;;;;;;3.77;87.81;95057.16;5045116;28;20216;-77
2024/01/25 01:19:24;;;;;;;0.43;0.43;;;;;;;4.13;89.14;95047.88;5045736;28;20206;-77
2024/01/25 01:21:51;;;;;;;0.55;0.55;;;;;;;4.26;88.85;95036.53;5043409;28;20211;-77
2024/01/25 01:24:20;;;;;;;0.20;0.20;;;;;;;4.18;87.77;95018.34;5036464;28;20315;-77
2024/01/25 01:26:48;;;;;;;0.30;0.30;;;;;;;4.19;87.64;94998.50;5035843;28;20204;-77
2024/01/25 01:29:15;;;;;;;0.20;0.20;;;;;;;4.07;86.81;95000.75;5033487;28;20207;-75
2024/01/25 01:31:43;;;;;;;0.20;0.20;;;;;;;3.95;86.47;94986.88;5035243;28;20204;-74
2024/01/25 01:34:12;;;;;;;0.20;0.20;;;;;;;3.97;87.86;94984.69;5030264;28;20675;-74
2024/01/25 01:36:39;;;;;;;0.43;0.43;;;;;;;4.14;86.70;94990.50;5034412;28;20211;-74
2024/01/25 01:39:06;;;;;;;0.40;0.40;;;;;;;4.43;86.74;94979.03;5039538;28;20208;-76
2024/01/25 01:41:33;;;;;;;0.50;0.25;;;;;;;4.34;85.65;94972.66;5043586;28;20286;-75
2024/01/25 01:43:59;;;;;;;0.25;0.25;;;;;;;4.22;85.67;94955.06;5044527;28;20224;-75
2024/01/25 01:46:34;;;;;;;0.20;0.20;;;;;;;4.12;85.42;94976.56;5040182;28;20201;-76
2024/01/25 01:49:03;;;;;;;0.40;0.40;;;;;;;3.98;86.17;94980.13;5033416;28;20292;-76
2024/01/25 01:51:30;;;;;;;0.20;0.20;;;;;;;3.74;86.35;94967.41;5033492;28;20200;-76
2024/01/25 01:53:58;;;;;;;0.20;0.20;;;;;;;3.85;86.79;94962.78;5040895;28;20287;-76
2024/01/25 01:56:27;;;;;;;0.30;0.30;;;;;;;3.68;86.44;94959.69;5042139;28;20611;-76
2024/01/25 01:58:55;;;;;;;0.40;0.40;;;;;;;4.04;88.27;94966.44;5041350;28;20816;-75
2024/01/25 02:01:22;;;;;;;1.25;1.15;;;;;;;4.04;86.24;94963.75;5049714;28;20618;-76
2024/01/25 02:03:49;;;;;;;0.25;0.25;;;;;;;3.80;86.37;94962.84;5042311;28;20232;-77
2024/01/25 02:06:17;;;;;;;0.60;0.60;;;;;;;3.93;86.24;94962.22;5049247;28;20211;-77
2024/01/25 02:08:44;;;;;;;0.40;0.40;;;;;;;4.14;86.46;94958.31;5032572;28;20204;-76
2024/01/25 02:11:13;;;;;;;1.05;1.05;;;;;;;4.36;85.82;94957.09;5031621;28;20778;-76
2024/01/25 02:13:39;;;;;;;0.88;0.85;;;;;;;4.38;85.21;94953.03;5031519;28;20196;-75
2024/01/25 02:16:08;;;;;;;0.20;0.20;;;;;;;4.71;85.42;94946.06;5032192;28;20196;-76
2024/01/25 02:18:35;;;;;;;0.20;0.20;;;;;;;5.26;85.35;94951.94;5032424;28;20278;-76
2024/01/25 02:21:05;;;;;;;0.40;0.40;;;;;;;5.78;84.21;94948.34;5031745;28;20740;-76
2024/01/25 02:23:33;;;;;;;0.20;0.20;;;;;;;6.13;83.20;94941.72;5032030;28;20224;-76
2024/01/25 02:26:00;;;;;;;0.20;0.20;;;;;;;6.59;81.88;94940.97;5032401;28;20549;-76
2024/01/25 02:28:27;;;;;;;0.20;0.20;;;;;;;6.79;81.07;94940.66;5031467;28;20254;-76
2024/01/25 02:30:54;;;;;;;12.70;4.38;;;;;;;6.97;79.74;94937.06;5031855;28;20208;-77
2024/01/25 02:33:21;;;;;;;0.20;0.20;;;;;;;7.35;78.66;94926.16;5031942;28;20680;-76
2024/01/25 02:35:48;;;;;;;0.20;0.20;;;;;;;7.33;78.02;94917.56;5032459;28;20215;-76
2024/01/25 02:38:15;;;;;;;0.20;0.20;;;;;;;7.33;77.42;94917.56;5030797;28;20561;-77
2024/01/25 02:40:43;;;;;;;0.20;0.20;;;;;;;7.57;77.27;94918.13;5031297;28;20193;-77
2024/01/25 02:43:10;;;;;;;0.20;0.20;;;;;;;7.69;77.64;94920.31;5036751;28;20639;-79
2024/01/25 02:45:37;;;;;;;0.20;0.20;;;;;;;7.89;76.94;94911.00;5034011;28;20232;-76
2024/01/25 02:48:05;;;;;;;0.43;0.40;;;;;;;8.03;76.79;94914.47;5030913;28;20204;-77
2024/01/25 02:50:31;;;;;;;0.20;0.20;;;;;;;8.07;75.98;94896.56;5033142;28;20207;-78
2024/01/25 02:52:59;;;;;;;0.20;0.20;;;;;;;8.17;75.94;94893.63;5033592;28;20625;-79
2024/01/25 02:55:26;;;;;;;0.20;0.20;;;;;;;8.33;75.05;94899.50;5037902;28;20262;-78
2024/01/25 02:57:54;;;;;;;0.20;0.20;;;;;;;8.42;74.44;94895.75;5030420;28;20200;-75
2024/01/25 03:00:21;;;;;;;0.30;0.30;;;;;;;8.21;75.66;94905.41;5032655;28;20231;-75
2024/01/25 03:02:48;;;;;;;0.10;0.10;;;;;;;8.18;75.11;94895.25;5051839;28;20211;-75
2024/01/25 03:05:15;;;;;;;0.30;0.30;;;;;;;8.25;75.68;94917.19;5046545;28;20587;-76
2024/01/25 03:07:42;;;;;;;0.20;0.20;;;;;;;8.10;75.92;94923.72;5051350;28;20553;-75
2024/01/25 03:10:09;;;;;;;0.20;0.20;;;;;;;8.17;75.97;94926.03;5043595;28;20211;-76
2024/01/25 03:12:36;;;;;;;0.20;0.20;;;;;;;8.23;76.04;94919.38;5033820;28;20216;-75
2024/01/25 03:15:06;;;;;;;0.20;0.20;;;;;;;8.36;76.56;94918.56;5028877;28;20786;-75
2024/01/25 03:17:33;;;;;;;0.20;0.20;;;;;;;8.25;77.33;94911.78;5039765;28;20199;-75
2024/01/25 03:19:59;;;;;;;0.20;0.20;;;;;;;8.29;77.52;94915.47;5032163;28;20566;-74
2024/01/25 03:22:26;;;;;;;0.20;0.20;;;;;;;8.45;77.10;94924.06;5036271;28;20200;-75
2024/01/25 03:24:53;;;;;;;0.20;0.20;;;;;;;8.52;76.70;94917.09;5041328;28;20236;-74
2024/01/25 03:27:20;;;;;;;0.10;0.10;;;;;;;8.43;77.27;94897.34;5032336;28;20200;-75
2024/01/25 03:29:47;;;;;;;0.32;0.30;;;;;;;8.23;78.23;94887.00;5033237;28;20209;-76
2024/01/25 03:32:15;;;;;;;0.20;0.20;;;;;;;8.40;77.62;94903.38;5041798;28;20199;-76
2024/01/25 03:34:42;;;;;;;0.20;0.20;;;;;;;8.29;78.31;94896.59;5034491;28;20608;-76
2024/01/25 03:37:08;;;;;;;0.20;0.20;;;;;;;8.31;77.51;94910.59;5046552;28;20208;-75
2024/01/25 03:39:35;;;;;;;0.20;0.20;;;;;;;8.25;77.87;94903.69;5039082;28;20211;-75
2024/01/25 03:42:02;;;;;;;0.20;0.20;;;;;;;8.08;78.10;94888.16;5045712;28;20265;-75
2024/01/25 03:44:29;;;;;;;0.30;0.30;;;;;;;8.21;77.37;94875.72;5037519;28;20228;-76
2024/01/25 03:46:55;;;;;;;0.28;0.28;;;;;;;8.21;77.52;94873.03;5048850;28;20222;-75
2024/01/25 03:49:24;;;;;;;0.73;0.73;;;;;;;8.08;76.64;94858.47;5046565;28;20204;-76
2024/01/25 03:51:50;;;;;;;0.20;0.20;;;;;;;7.98;76.58;94863.31;5048823;28;20208;-76
2024/01/25 03:54:18;;;;;;;0.20;0.20;;;;;;;8.06;76.31;94868.78;5040872;28;20295;-77
2024/01/25 03:56:44;;;;;;;0.20;0.20;;;;;;;8.04;76.54;94857.50;5030971;28;20204;-76
2024/01/25 03:59:13;;;;;;;0.20;0.20;;;;;;;8.10;76.40;94856.28;5031150;28;20200;-74
2024/01/25 04:01:44;;;;;;;0.20;0.20;;;;;;;8.28;75.55;94841.00;5030358;28;20204;-76
2024/01/25 04:04:12;;;;;;;0.20;0.20;;;;;;;8.04;75.85;94851.31;5028195;28;20267;-75
2024/01/25 04:06:42;;;;;;;0.20;0.20;;;;;;;8.31;75.04;94840.41;5030755;28;20204;-74
2024/01/25 04:09:09;;;;;;;0.10;0.10;;;;;;;8.41;74.72;94844.78;5030697;28;20307;-76
2024/01/25 04:11:36;;;;;;;0.20;0.20;;;;;;;8.43;74.58;94851.47;5029791;28;20247;-75
2024/01/25 04:14:03;;;;;;;0.20;0.20;;;;;;;8.81;74.87;94822.13;5033010;28;20580;-76
2024/01/25 04:16:30;;;;;;;0.20;0.20;;;;;;;9.02;78.81;94835.84;5024807;28;20204;-74
2024/01/25 04:18:57;;;;;;;0.43;0.43;;;;;;;9.00;74.46;94840.00;5030158;28;20549;-72
2024/01/25 04:21:24;;;;;;;0.20;0.20;;;;;;;8.97;74.44;94844.13;5030572;28;20212;-74
2024/01/25 04:23:53;;;;;;;0.20;0.20;;;;;;;8.78;73.44;94843.53;5037723;28;20207;-76
2024/01/25 04:26:20;;;;;;;0.20;0.20;;;;;;;8.72;73.11;94840.19;5048882;28;20207;-76
2024/01/25 04:28:47;;;;;;;0.20;0.20;;;;;;;8.65;73.40;94828.22;5038948;28;20207;-75
2024/01/25 04:31:13;;;;;;;0.30;0.30;;;;;;;8.48;73.50;94840.53;5051590;28;20212;-74
2024/01/25 04:33:41;;;;;;;0.20;0.20;;;;;;;8.38;73.51;94840.78;5054285;28;20227;-74
2024/01/25 04:36:08;;;;;;;0.20;0.20;;;;;;;8.27;73.41;94839.41;5054122;28;20636;-74
2024/01/25 04:38:34;;;;;;;0.10;0.10;;;;;;;8.20;73.62;94844.44;5042191;28;20707;-74
2024/01/25 04:41:03;;;;;;;0.30;0.30;;;;;;;8.32;73.71;94846.63;5032652;28;20258;-75
2024/01/25 04:43:29;;;;;;;0.45;0.45;;;;;;;8.16;73.07;94859.66;5032192;28;20197;-74
2024/01/25 04:45:56;;;;;;;0.40;0.40;;;;;;;8.05;73.15;94863.72;5050349;28;20277;-74
2024/01/25 04:48:23;;;;;;;0.20;0.20;;;;;;;7.53;74.47;94882.09;5043310;28;20211;-73
2024/01/25 04:50:50;;;;;;;0.20;0.20;;;;;;;7.24;75.40;94876.25;5052066;28;20262;-73
2024/01/25 04:53:16;;;;;;;0.75;0.75;;;;;;;7.20;75.92;94897.59;5050835;28;20269;-74
2024/01/25 04:55:43;;;;;;;0.17;0.17;;;;;;;7.01;76.91;94888.81;5053250;28;20200;-74
2024/01/25 04:58:11;;;;;;;0.20;0.20;;;;;;;7.06;76.89;94886.81;5044253;28;20208;-75
2024/01/25 05:00:39;;;;;;;0.40;0.40;;;;;;;7.10;76.69;94887.03;5045718;28;20773;-74
2024/01/25 05:03:06;;;;;;;0.20;0.20;;;;;;;7.39;75.26;94884.00;5035996;28;20311;-75
2024/01/25 05:05:33;;;;;;;0.32;0.32;;;;;;;7.42;74.53;94878.81;5043687;28;20521;-75
2024/01/25 05:08:00;;;;;;;0.25;0.25;;;;;;;7.52;73.52;94877.03;5038077;28;20212;-74
2024/01/25 05:10:27;;;;;;;0.10;0.10;;;;;;;7.85;72.11;94905.41;5032967;28;20322;-74
2024/01/25 05:12:54;;;;;;;0.20;0.20;;;;;;;7.58;72.46;94892.78;5040330;28;20200;-74
2024/01/25 05:15:22;;;;;;;0.20;0.20;;;;;;;7.54;72.62;94907.94;5037409;28;20269;-74
2024/01/25 05:17:49;;;;;;;0.20;0.20;;;;;;;7.68;72.44;94930.31;5052103;28;20207;-76
2024/01/25 05:20:17;;;;;;;0.20;0.20;;;;;;;7.70;71.25;94949.69;5048776;28;20264;-76
2024/01/25 05:22:45;;;;;;;0.20;0.20;;;;;;;7.81;70.77;94945.66;5033530;28;20287;-76
2024/01/25 05:25:13;;;;;;;0.20;0.20;;;;;;;7.70;70.17;94941.59;5032647;28;20673;-76
2024/01/25 05:27:39;;;;;;;0.30;0.30;;;;;;;7.78;69.89;94930.13;5032304;28;20215;-75
2024/01/25 05:30:10;;;;;;;0.20;0.20;;;;;;;7.82;69.99;94925.69;5031004;28;20208;-76
2024/01/25 05:32:39;;;;;;;0.20;0.20;;;;;;;7.88;69.97;94949.88;5032770;28;20620;-76
2024/01/25 05:35:11;;;;;;;0.30;0.30;;;;;;;7.94;69.47;94943.25;5032455;28;20566;-76
2024/01/25 05:37:37;;;;;;;0.75;0.50;;;;;;;7.85;69.77;94941.28;5032432;28;20214;-77
2024/01/25 05:40:05;;;;;;;0.20;0.20;;;;;;;7.99;69.10;94932.34;5031667;28;20266;-75
2024/01/25 05:42:32;;;;;;;0.20;0.20;;;;;;;7.77;69.68;94942.00;5033894;28;20208;-75
2024/01/25 05:44:59;;;;;;;0.32;0.32;;;;;;;7.85;69.87;94957.47;5030295;28;20256;-75
2024/01/25 05:47:26;;;;;;;0.20;0.20;;;;;;;7.89;69.11;94952.25;5035974;28;20196;-76
2024/01/25 05:49:55;;;;;;;0.20;0.20;;;;;;;7.87;69.10;94965.25;5032431;28;20272;-76
2024/01/25 05:52:22;;;;;;;0.20;0.20;;;;;;;8.08;69.02;94949.41;5030486;28;20204;-75
2024/01/25 05:54:48;;;;;;;0.20;0.20;;;;;;;7.96;69.14;94970.72;5033790;28;20295;-76
2024/01/25 05:57:15;;;;;;;0.20;0.20;;;;;;;7.99;69.07;94967.41;5031423;28;20262;-75
2024/01/25 05:59:42;;;;;;;0.55;0.55;;;;;;;7.94;69.33;94968.31;5034245;28;20278;-74
2024/01/25 06:02:10;;;;;;;0.20;0.20;;;;;;;7.90;69.39;94969.25;5035236;28;20303;-76
2024/01/25 06:04:37;;;;;;;0.20;0.20;;;;;;;7.80;70.17;94960.25;5034358;28;20205;-76
2024/01/25 06:07:05;;;;;;;0.75;0.40;;;;;;;7.82;70.90;94974.22;5031540;28;20291;-76
2024/01/25 06:09:32;;;;;;;0.20;0.20;;;;;;;7.74;70.87;94955.28;5031199;28;20539;-76
2024/01/25 06:11:59;;;;;;;0.20;0.20;;;;;;;7.88;70.43;94979.53;5034797;28;20247;-75
2024/01/25 06:14:26;;;;;;;0.28;0.28;;;;;;;7.72;70.55;94979.84;5031951;28;20208;-74
2024/01/25 06:16:53;;;;;;;0.20;0.20;;;;;;;7.65;70.88;94984.06;5032941;28;20222;-76
2024/01/25 06:19:19;;;;;;;0.20;0.20;;;;;;;7.70;70.85;95003.59;5042309;28;20215;-75
2024/01/25 06:21:46;;;;;;;0.95;0.70;;;;;;;7.61;72.15;94994.63;5051452;28;20230;-76
2024/01/25 06:24:14;;;;;;;0.20;0.20;;;;;;;7.68;71.43;94996.91;5037743;28;20236;-78
2024/01/25 06:26:41;;;;;;;0.20;0.20;;;;;;;7.71;71.25;95007.91;5035055;28;20220;-74
2024/01/25 06:29:08;;;;;;;0.30;0.30;;;;;;;7.60;71.64;94986.84;5031712;28;20592;-76
2024/01/25 06:31:43;;;;;;;0.20;0.20;;;;;;;7.69;71.76;94985.81;5037072;28;20262;-75
2024/01/25 06:34:09;;;;;;;0.20;0.20;;;;;;;7.70;71.28;95000.91;5043821;28;20231;-74
2024/01/25 06:36:36;;;;;;;0.20;0.20;;;;;;;7.78;70.81;95013.72;5041319;28;20667;-74
2024/01/25 06:39:04;;;;;;;0.20;0.20;;;;;;;7.75;71.32;95000.03;5030712;28;20592;-76
2024/01/25 06:41:32;;;;;;;0.20;0.20;;;;;;;7.73;71.36;94997.63;5031254;28;20200;-74
2024/01/25 06:44:00;;;;;;;2.65;0.40;;;;;;;7.74;71.76;94983.03;5045846;28;20575;-76
2024/01/25 06:46:27;;;;;;;0.20;0.20;;;;;;;7.87;71.08;94975.22;5025933;28;20238;-75
2024/01/25 06:48:55;;;;;;;0.30;0.30;;;;;;;7.75;71.11;94979.25;5051912;28;20208;-76
2024/01/25 06:51:22;;;;;;;0.20;0.20;;;;;;;7.78;71.19;94985.94;5052325;28;20204;-76
2024/01/25 06:53:48;;;;;;;2.75;0.35;;;;;;;7.79;71.72;94991.00;5051339;28;20207;-75
2024/01/25 06:56:15;;;;;;;0.20;0.20;;;;;;;7.88;71.20;94998.41;5051788;28;20207;-76
2024/01/25 06:58:43;;;;;;;0.50;0.50;;;;;;;7.83;71.65;94989.31;5051011;28;20210;-75
2024/01/25 07:01:11;;;;;;;0.20;0.20;;;;;;;7.80;71.06;94989.91;5052298;28;20218;-75
2024/01/25 07:03:38;;;;;;;0.20;0.20;;;;;;;7.92;70.60;94999.41;5051939;28;20211;-75
2024/01/25 07:06:05;;;;;;;0.20;0.20;;;;;;;7.95;71.08;94979.91;5051957;28;20227;-74
2024/01/25 07:08:32;;;;;;;0.20;0.20;;;;;;;7.93;70.09;94966.72;5052023;28;20253;-75
2024/01/25 07:11:01;;;;;;;0.20;0.20;;;;;;;7.98;70.67;94988.22;5051728;28;20710;-76
2024/01/25 07:13:27;;;;;;;0.52;0.52;;;;;;;7.91;70.51;94965.44;5049637;28;20250;-76
2024/01/25 07:15:57;;;;;;;0.20;0.20;;;;;;;8.07;69.99;94964.00;5040865;28;20200;-74
2024/01/25 07:18:25;;;;;;;0.20;0.20;;;;;;;7.98;69.46;94949.63;5051447;28;20234;-74
2024/01/25 07:20:52;;;;;;;0.20;0.20;;;;;;;7.93;69.82;94963.22;5051583;28;20299;-75
2024/01/25 07:23:21;;;;;;;1.95;1.00;;;;;;;8.07;69.09;94964.00;5038398;28;20601;-75
2024/01/25 07:25:47;;;;;;;0.20;0.20;;;;;;;7.98;69.31;94960.44;5051319;28;20227;-76
2024/01/25 07:28:14;;;;;;;0.57;0.57;;;;;;;8.04;68.85;94980.81;5047641;28;20624;-77
2024/01/25 07:30:41;;;;;;;0.20;0.20;;;;;;;8.06;69.21;94984.78;5031735;28;20579;-75
2024/01/25 07:33:09;;;;;;;0.20;0.20;;;;;;;8.10;68.87;94983.09;5044475;28;20235;-75
2024/01/25 07:35:36;;;;;;;0.35;0.35;;;;;;;8.16;68.20;94989.97;5031758;28;20223;-76
2024/01/25 07:38:03;;;;;;;0.20;0.20;;;;;;;8.25;68.74;94975.75;5041158;28;20228;-75
2024/01/25 07:40:30;;;;;;;0.20;0.20;;;;;;;8.13;68.25;94976.28;5042714;28;20211;-76
2024/01/25 07:42:57;;;;;;;0.50;0.50;;;;;;;8.13;68.66;94970.91;5051482;28;20261;-75
2024/01/25 07:45:23;;;;;;;0.20;0.20;;;;;;;8.05;68.38;94975.13;5051379;28;20628;-77
2024/01/25 07:47:50;;;;;;;0.38;0.38;;;;;;;8.12;68.66;94977.38;5051092;28;20203;-76
2024/01/25 07:50:18;;;;;;;0.20;0.20;;;;;;;8.22;67.75;94987.94;5039902;28;20612;-75
2024/01/25 07:52:46;;;;;;;0.30;0.30;;;;;;;8.04;68.47;95007.78;5049581;28;20246;-74
2024/01/25 07:55:12;;;;;;;0.25;0.25;;;;;;;7.96;68.12;94992.28;5051635;28;20211;-76
2024/01/25 07:57:39;;;;;;;0.13;0.13;;;;;;;8.08;67.83;95008.75;5032962;28;20553;-76
2024/01/25 08:00:08;;;;;;;0.40;0.40;;;;;;;8.19;67.91;95010.97;5042443;28;20212;-76
2024/01/25 08:02:35;;;;;;;0.20;0.20;;;;;;;8.22;67.40;94998.75;5051061;28;20273;-78
2024/01/25 08:05:02;;;;;;;0.30;0.30;;;;;;;8.36;67.02;94994.16;5052561;28;20257;-76
2024/01/25 08:07:30;;;;;;;2.25;0.32;;;;;;;8.52;65.95;95011.59;5055121;28;20211;-77
2024/01/25 08:09:58;;;;;;;0.20;0.20;;;;;;;8.39;66.38;94998.94;5055331;28;20294;-76
2024/01/25 08:12:24;;;;;;;8.30;0.40;;;;;;;8.40;66.28;94987.03;5054724;28;20575;-74
2024/01/25 08:14:51;;;;;;;0.40;0.40;;;;;;;8.71;65.50;94989.03;5042536;28;20216;-75
2024/01/25 08:17:18;;;;;;;3.80;0.57;;;;;;;8.52;65.15;94987.31;5054464;28;20564;-76
2024/01/25 08:19:46;;;;;;;0.40;0.40;;;;;;;8.55;65.92;94991.28;5055246;28;20215;-75
2024/01/25 08:22:13;;;;;;;0.30;0.30;;;;;;;8.70;64.69;94992.84;5054475;28;20524;-76
2024/01/25 08:24:41;;;;;;;0.25;0.25;;;;;;;8.57;64.18;94982.91;5054876;28;20212;-75
2024/01/25 08:27:08;;;;;;;0.10;0.10;;;;;;;8.66;64.01;94997.25;5047727;28;20221;-75
2024/01/25 08:29:35;;;;;;;0.22;0.22;;;;;;;8.62;63.99;94988.16;5034899;28;20262;-74
2024/01/25 08:32:02;;;;;;;0.20;0.20;;;;;;;8.61;63.69;94990.06;5053938;28;20215;-76
2024/01/25 08:34:29;;;;;;;0.20;0.20;;;;;;;8.61;63.43;94995.47;5054795;28;20231;-74
2024/01/25 08:36:56;;;;;;;0.40;0.40;;;;;;;8.61;63.22;94995.47;5054433;28;20211;-76
2024/01/25 08:39:23;;;;;;;0.20;0.20;;;;;;;8.80;63.02;95008.81;5037860;28;20208;-75
2024/01/25 08:41:51;;;;;;;0.35;0.35;;;;;;;8.93;62.20;95013.34;5045507;28;20216;-75
2024/01/25 08:44:18;;;;;;;0.47;0.47;;;;;;;9.12;61.96;95016.66;5039222;28;20214;-76
2024/01/25 08:46:44;;;;;;;0.30;0.30;;;;;;;8.79;62.31;95026.91;5054754;28;20564;-76
2024/01/25 08:49:12;;;;;;;0.20;0.20;;;;;;;8.73;62.95;95021.94;5054337;28;20280;-76
2024/01/25 08:51:39;;;;;;;0.20;0.20;;;;;;;9.02;62.42;95022.28;5053991;28;20203;-75
2024/01/25 08:54:05;;;;;;;0.20;0.20;;;;;;;8.98;63.44;95009.72;5054073;28;20219;-74
2024/01/25 08:56:32;;;;;;;0.30;0.30;;;;;;;8.80;62.60;95011.50;5054154;28;20207;-75
2024/01/25 08:59:00;;;;;;;0.20;0.20;;;;;;;9.03;62.80;95023.09;5054150;28;20208;-76
2024/01/25 09:01:27;;;;;;;1.25;0.60;;;;;;;8.93;62.71;94997.13;5053648;28;20220;-74
2024/01/25 09:03:54;;;;;;;0.20;0.20;;;;;;;8.93;63.81;95010.63;5053937;28;20273;-75
2024/01/25 09:06:21;;;;;;;0.35;0.35;;;;;;;9.11;62.36;95009.66;5054263;28;20342;-75
2024/01/25 09:08:48;;;;;;;0.20;0.20;;;;;;;8.86;63.59;95018.41;5054183;28;20645;-74
2024/01/25 09:11:15;;;;;;;0.20;0.20;;;;;;;8.80;63.83;95014.19;5053634;28;20247;-74
2024/01/25 09:13:44;;;;;;;0.22;0.22;;;;;;;8.73;63.66;95019.25;5053837;28;20227;-75
2024/01/25 09:16:13;;;;;;;1.58;0.93;;;;;;;8.80;64.13;95003.41;5053809;28;20656;-74
2024/01/25 09:18:39;;;;;;;0.20;0.20;;;;;;;8.97;63.41;95008.94;5053602;28;20659;-76
2024/01/25 09:21:06;;;;;;;1.75;1.15;;;;;;;8.78;63.77;94994.78;5053641;28;20239;-74
2024/01/25 09:23:33;;;;;;;0.20;0.20;;;;;;;9.04;63.14;95014.69;5053280;28;20203;-73
2024/01/25 09:26:00;;;;;;;0.20;0.20;;;;;;;9.22;63.18;95016.41;5053905;28;20587;-75
2024/01/25 09:28:26;;;;;;;0.20;0.20;;;;;;;9.24;62.70;95018.78;5053453;28;20220;-75
2024/01/25 09:30:53;;;;;;;5.47;0.68;;;;;;;9.19;62.48;95000.78;5053019;28;20215;-75
2024/01/25 09:33:21;;;;;;;0.30;0.30;;;;;;;9.20;63.37;95013.19;5052810;28;20372;-75
2024/01/25 09:35:48;;;;;;;0.20;0.20;;;;;;;9.30;62.22;95005.94;5053667;28;20667;-75
2024/01/25 09:38:15;;;;;;;0.20;0.20;;;;;;;9.23;62.63;95018.00;5034722;28;20204;-74
2024/01/25 09:40:42;;;;;;;0.52;0.52;;;;;;;9.16;62.58;95012.22;5046666;28;20687;-74
2024/01/25 09:43:09;;;;;;;0.60;0.55;;;;;;;9.30;62.32;95005.94;5033563;28;20208;-74
2024/01/25 09:45:36;;;;;;;0.20;0.20;;;;;;;9.41;61.86;94996.47;5048904;28;20269;-76
2024/01/25 09:48:04;;;;;;;0.20;0.20;;;;;;;9.26;62.77;94995.75;5053147;28;20212;-76
2024/01/25 09:50:33;;;;;;;0.30;0.30;;;;;;;9.43;62.25;94995.03;5052882;28;20235;-74
2024/01/25 09:53:01;;;;;;;0.20;0.20;;;;;;;9.71;61.85;94984.00;5053028;28;20217;-76
2024/01/25 09:55:28;;;;;;;0.45;0.45;;;;;;;9.38;62.10;94980.88;5052533;28;20664;-77
2024/01/25 09:57:56;;;;;;;0.45;0.45;;;;;;;9.05;62.73;94977.66;5052941;28;20222;-75
2024/01/25 10:00:23;;;;;;;0.22;0.22;;;;;;;9.09;62.61;94979.44;5053335;28;20211;-76
2024/01/25 10:02:50;;;;;;;0.20;0.20;;;;;;;9.13;63.17;94975.03;5052135;28;20212;-75
2024/01/25 10:05:17;;;;;;;0.20;0.20;;;;;;;9.07;63.49;94960.03;5052604;28;20589;-76
2024/01/25 10:07:47;;;;;;;0.30;0.30;;;;;;;9.10;63.62;94954.00;5052552;28;20660;-76
2024/01/25 10:10:14;;;;;;;0.85;0.30;;;;;;;9.08;63.91;94961.63;5052520;28;20211;-75
2024/01/25 10:12:42;;;;;;;0.25;0.25;;;;;;;9.38;62.38;94938.41;5053183;28;20214;-77
2024/01/25 10:15:10;;;;;;;0.35;0.35;;;;;;;9.14;63.73;94938.78;5052972;28;20571;-76
2024/01/25 10:17:36;;;;;;;0.35;0.35;;;;;;;9.33;63.01;94933.13;5051845;28;20199;-76
2024/01/25 10:20:07;;;;;;;0.70;0.70;;;;;;;9.32;63.33;94933.44;5051988;28;20215;-75
2024/01/25 10:22:34;;;;;;;0.98;0.95;;;;;;;9.41;62.94;94934.28;5052874;28;20261;-76
2024/01/25 10:25:02;;;;;;;0.20;0.20;;;;;;;9.30;63.30;94930.25;5051579;28;20204;-77
2024/01/25 10:27:29;;;;;;;0.28;0.28;;;;;;;9.50;62.91;94935.09;5052616;28;20259;-74
2024/01/25 10:29:57;;;;;;;0.20;0.20;;;;;;;9.49;63.49;94930.81;5051033;28;20239;-76
2024/01/25 10:32:24;;;;;;;2.10;0.68;;;;;;;9.54;63.35;94927.97;5051469;28;20537;-76
2024/01/25 10:34:52;;;;;;;0.20;0.20;;;;;;;9.73;62.48;94920.38;5051801;28;20211;-76
2024/01/25 10:37:21;;;;;;;0.20;0.20;;;;;;;9.61;62.97;94922.88;5050611;28;20214;-75
2024/01/25 10:39:49;;;;;;;1.00;0.28;;;;;;;9.26;63.59;94939.00;5038216;28;20204;-78
2024/01/25 10:42:17;;;;;;;0.20;0.20;;;;;;;9.62;63.39;94932.59;5052380;28;20284;-76
2024/01/25 10:44:45;;;;;;;0.30;0.30;;;;;;;9.65;62.59;94942.78;5051904;28;20199;-77
2024/01/25 10:47:12;;;;;;;0.85;0.40;;;;;;;9.52;63.25;94927.47;5039505;28;20570;-75
2024/01/25 10:49:39;;;;;;;0.22;0.22;;;;;;;9.48;62.95;94911.06;5051232;28;20553;-76
2024/01/25 10:52:07;;;;;;;0.25;0.25;;;;;;;9.35;63.86;94911.19;5052478;28;20208;-76
2024/01/25 10:54:34;;;;;;;0.20;0.20;;;;;;;9.77;63.40;94918.63;5051948;28;20211;-77
2024/01/25 10:57:02;;;;;;;0.30;0.30;;;;;;;9.86;62.11;94905.13;5051479;28;20222;-75
2024/01/25 10:59:30;;;;;;;0.30;0.30;;;;;;;9.65;62.40;94907.63;5052211;28;20215;-76
2024/01/25 11:01:57;;;;;;;1.48;0.47;;;;;;;9.64;61.47;94908.75;5052125;28;20211;-76
2024/01/25 11:04:24;;;;;;;0.52;0.52;;;;;;;9.75;60.73;94904.63;5050858;28;20277;-76
2024/01/25 11:06:52;;;;;;;1.13;0.85;;;;;;;9.66;60.88;94903.81;5051498;28;20627;-76
2024/01/25 11:09:20;;;;;;;0.38;0.38;;;;;;;10.13;60.02;94894.00;5052155;28;20218;-76
2024/01/25 11:11:49;;;;;;;0.20;0.20;;;;;;;10.17;59.73;94894.97;5051494;28;20239;-76
2024/01/25 11:14:16;;;;;;;0.43;0.43;;;;;;;10.00;60.40;94884.13;5051648;28;20212;-76
2024/01/25 11:16:46;;;;;;;0.20;0.20;;;;;;;10.11;59.24;94873.81;5052002;28;20218;-76
2024/01/25 11:19:18;;;;;;;1.05;0.60;;;;;;;9.66;60.15;94871.34;5051598;28;20265;-76
2024/01/25 11:21:46;;;;;;;0.20;0.20;;;;;;;9.99;59.92;94864.38;5051624;28;20216;-75
2024/01/25 11:24:14;;;;;;;0.20;0.20;;;;;;;10.08;58.95;94859.00;5051492;28;20238;-75
2024/01/25 11:26:41;;;;;;;0.20;0.20;;;;;;;9.99;59.60;94856.25;5051628;28;20223;-75
2024/01/25 11:29:08;;;;;;;0.30;0.30;;;;;;;9.63;59.19;94870.06;5051346;28;20603;-75
2024/01/25 11:31:35;;;;;;;0.57;0.50;;;;;;;9.24;60.71;94868.22;5051672;28;20544;-76
2024/01/25 11:34:04;;;;;;;1.52;0.70;;;;;;;9.21;59.94;94863.44;5051744;28;20250;-77
2024/01/25 11:36:30;;;;;;;4.85;1.40;;;;;;;9.13;60.80;94866.91;5050886;28;20211;-76
2024/01/25 11:38:58;;;;;;;0.73;0.73;;;;;;;9.18;61.31;94853.25;5035782;28;20211;-75
2024/01/25 11:41:27;;;;;;;0.30;0.30;;;;;;;9.08;61.27;94858.94;5053732;28;20215;-76